Current | Forecast
Updated: 3:30 AM CET on August 21, 2017
Observed at Tunis-Carthage, Tunisia
Temperature 75°F
Humidity 65%
Dew Point 63°F
Wind WNW at 12 mph
Pressure 30.01 in (Steady)
Conditions Clear
Visibility -
UV N/A
Clouds
Yesterday's Maximum 95°F
Yesterday's Minimum 77°F approx.
Yesterday's Cooling Degree Days 21 approx.
Sunrise5:39 AM CET
Sunset6:59 PM CET
Moon Rise5:05 AM CET
Moon Set6:55 PM CET
Moon PhaseMoon Phase
Waning Crescent
Raw METARMETAR DTTA 210230Z 29010KT CAVOK 24/17 Q1016 NOSIG


Monday
. High: 87° F.
Tuesday
. High: 89° F.
Wednesday
. High: 91° F.
Thursday
. High: 87° F.
Friday
. High: 82° F.
Saturday
. High: 80° F.
Sunday
. High: 84° F.
Monday
. High: 82° F.

Units: English | Metric

Find the Weather for any City, State or Zipcode, or Country:

U.S. State List | Severe Weather | Tropical Storms | Ski Conditions
United States | Canada | Central America | South America | Asia | Europe | Australia | Africa | Islands

Weather Underground

© Copyright 2017
The Weather Company, LLC